createdAt,value
2019-02-11T00:02:23.012Z,9.33
2019-02-11T00:05:00.812Z,19.30
2019-02-11T00:07:30.051Z,16.73
2019-02-11T00:10:05.702Z,14.87
2019-02-11T00:12:36.949Z,11.93
2019-02-11T00:15:08.341Z,21.77
2019-02-11T00:17:45.856Z,19.47
2019-02-11T00:20:20.150Z,12.97
2019-02-11T00:23:03.867Z,19.07
2019-02-11T00:25:41.720Z,22.70
2019-02-11T00:28:11.603Z,21.93
2019-02-11T00:30:48.410Z,20.10
2019-02-11T00:33:22.097Z,15.43
2019-02-11T00:35:53.425Z,14.77
2019-02-11T00:38:29.325Z,25.60
2019-02-11T00:40:59.899Z,15.13
2019-02-11T00:43:31.636Z,24.27
2019-02-11T00:46:03.982Z,15.50
2019-02-11T00:48:40.424Z,19.13
2019-02-11T00:51:13.273Z,24.90
2019-02-11T00:53:45.150Z,15.93
2019-02-11T00:56:17.009Z,15.13
2019-02-11T00:58:47.136Z,18.53
2019-02-11T01:01:20.740Z,16.03
2019-02-11T01:03:57.779Z,17.63
2019-02-11T01:06:31.025Z,15.97
2019-02-11T01:09:04.808Z,14.20
2019-02-11T01:11:41.620Z,10.57
2019-02-11T01:14:12.924Z,19.27
2019-02-11T01:16:42.445Z,18.00
2019-02-11T01:19:22.689Z,19.63
2019-02-11T01:21:52.535Z,14.60
2019-02-11T01:24:24.545Z,14.00
2019-02-11T01:26:56.344Z,9.73
2019-02-11T01:29:38.174Z,11.00
2019-02-11T01:32:21.957Z,13.77
2019-02-11T01:37:29.662Z,14.37
2019-02-11T01:40:03.945Z,14.77
2019-02-11T01:42:33.048Z,18.70
2019-02-11T01:45:03.593Z,16.97
2019-02-11T01:47:36.425Z,18.03
2019-02-11T01:50:06.550Z,15.23
2019-02-11T01:52:39.088Z,15.27
2019-02-11T01:55:09.747Z,13.17
2019-02-11T01:57:43.701Z,11.63
2019-02-11T02:00:17.661Z,17.17
2019-02-11T02:02:49.946Z,10.00
2019-02-11T02:05:28.014Z,13.00
2019-02-11T02:07:59.541Z,8.40
2019-02-11T02:10:36.345Z,12.70
2019-02-11T02:13:10.461Z,11.77
2019-02-11T02:15:46.144Z,7.23
2019-02-11T02:18:16.220Z,6.87
2019-02-11T02:20:49.516Z,6.43
2019-02-11T02:23:25.834Z,10.63
2019-02-11T02:25:57.439Z,8.20
2019-02-11T02:28:28.050Z,7.00
2019-02-11T02:30:59.556Z,7.60
2019-02-11T02:33:31.263Z,10.87
2019-02-11T02:36:01.018Z,13.03
2019-02-11T02:38:33.109Z,8.17
2019-02-11T02:41:04.538Z,11.80
2019-02-11T02:43:36.552Z,9.37
2019-02-11T02:46:08.139Z,10.83
2019-02-11T02:48:40.243Z,9.77
2019-02-11T02:51:10.803Z,12.37
2019-02-11T02:53:41.429Z,12.20
2019-02-11T02:56:17.120Z,9.40
2019-02-11T02:58:54.612Z,7.30
2019-02-11T03:01:36.958Z,9.20
2019-02-11T03:06:46.437Z,8.23
2019-02-11T03:09:20.776Z,7.63
2019-02-11T03:11:53.975Z,7.60
2019-02-11T03:14:26.162Z,8.97
2019-02-11T03:16:58.017Z,6.43
2019-02-11T03:19:28.876Z,12.33
2019-02-11T03:22:00.943Z,14.20
2019-02-11T03:24:31.341Z,9.53
2019-02-11T03:27:02.925Z,12.03
2019-02-11T03:29:36.813Z,9.07
2019-02-11T03:32:07.212Z,9.90
2019-02-11T03:34:37.345Z,11.87
2019-02-11T03:37:12.023Z,11.90
2019-02-11T03:39:49.422Z,14.30
2019-02-11T03:42:22.374Z,10.03
2019-02-11T03:44:57.804Z,12.13
2019-02-11T03:47:28.858Z,9.97
2019-02-11T03:50:01.802Z,6.30
2019-02-11T03:52:35.857Z,6.60
2019-02-11T03:55:05.849Z,6.40
2019-02-11T03:57:35.862Z,9.67
2019-02-11T04:00:17.039Z,6.40
2019-02-11T04:02:50.552Z,9.07
2019-02-11T04:05:23.183Z,8.07
2019-02-11T04:07:59.103Z,6.63
2019-02-11T04:10:31.471Z,8.50
2019-02-11T04:13:05.342Z,11.23
2019-02-11T04:15:35.718Z,13.97
2019-02-11T04:18:13.170Z,3.73
2019-02-11T04:20:45.112Z,8.03
2019-02-11T04:23:25.174Z,7.13
2019-02-11T04:26:01.484Z,8.87
2019-02-11T04:28:38.524Z,6.67
2019-02-11T04:31:11.466Z,13.23
2019-02-11T04:33:58.349Z,9.73
2019-02-11T04:36:33.878Z,9.63
2019-02-11T04:39:07.570Z,8.30
2019-02-11T04:41:43.216Z,9.73
2019-02-11T04:44:17.002Z,6.90
2019-02-11T04:46:51.706Z,5.50
2019-02-11T04:49:27.137Z,12.40
2019-02-11T04:51:59.110Z,12.23
2019-02-11T04:54:32.551Z,11.63
2019-02-11T04:57:06.606Z,13.53
2019-02-11T04:59:36.964Z,5.80
2019-02-11T05:02:10.509Z,13.77
2019-02-11T05:04:41.352Z,5.10
2019-02-11T05:07:15.991Z,7.13
2019-02-11T05:09:48.162Z,5.60
2019-02-11T05:12:19.381Z,7.63
2019-02-11T05:14:52.426Z,6.13
2019-02-11T05:17:24.720Z,5.03
2019-02-11T05:19:58.782Z,6.57
2019-02-11T05:22:28.047Z,10.57
2019-02-11T05:25:05.257Z,5.10
2019-02-11T05:27:40.065Z,4.03
2019-02-11T05:30:12.066Z,4.63
2019-02-11T05:32:47.313Z,4.37
2019-02-11T05:35:17.239Z,4.87
2019-02-11T05:37:48.736Z,5.97
2019-02-11T05:40:17.991Z,2.37
2019-02-11T05:42:47.947Z,5.10
2019-02-11T05:45:20.894Z,9.67
2019-02-11T05:47:52.262Z,7.03
2019-02-11T05:50:29.731Z,4.67
2019-02-11T05:53:02.254Z,10.63
2019-02-11T05:55:31.287Z,8.70
2019-02-11T05:58:04.215Z,7.97
2019-02-11T06:00:36.642Z,10.63
2019-02-11T06:03:10.365Z,10.37
2019-02-11T06:05:40.486Z,12.23
2019-02-11T06:08:11.262Z,5.23
2019-02-11T06:10:42.362Z,11.33
2019-02-11T06:13:11.812Z,6.97
2019-02-11T06:15:46.141Z,14.87
2019-02-11T06:18:17.227Z,7.87
2019-02-11T06:20:50.154Z,7.80
2019-02-11T06:23:29.598Z,7.57
2019-02-11T06:28:41.508Z,9.07
2019-02-11T06:31:12.548Z,9.73
2019-02-11T06:33:42.708Z,6.60
2019-02-11T06:38:50.110Z,9.00
2019-02-11T06:41:22.746Z,11.53
2019-02-11T06:43:52.910Z,6.07
2019-02-11T06:46:25.642Z,16.20
2019-02-11T06:48:57.933Z,10.87
2019-02-11T06:51:34.113Z,6.20
2019-02-11T06:54:05.170Z,9.47
2019-02-11T06:56:34.689Z,6.47
2019-02-11T06:59:07.155Z,12.40
2019-02-11T07:01:39.660Z,11.40
2019-02-11T07:04:08.637Z,8.40
2019-02-11T07:06:41.565Z,5.17
2019-02-11T07:09:12.487Z,6.53
2019-02-11T07:11:46.243Z,4.90
2019-02-11T07:14:23.957Z,4.67
2019-02-11T07:16:53.873Z,9.03
2019-02-11T07:19:30.374Z,7.60
2019-02-11T07:22:00.956Z,8.17
2019-02-11T07:27:11.690Z,8.07
2019-02-11T07:29:44.648Z,5.57
2019-02-11T07:32:18.372Z,5.53
2019-02-11T07:34:54.377Z,8.33
2019-02-11T07:37:27.653Z,4.50
2019-02-11T07:40:03.296Z,13.67
2019-02-11T07:42:44.445Z,7.43
2019-02-11T07:45:30.178Z,5.27
2019-02-11T07:47:58.001Z,8.33
2019-02-11T07:50:31.058Z,7.93
2019-02-11T07:53:05.662Z,10.03
2019-02-11T07:55:37.572Z,10.37
2019-02-11T07:58:12.813Z,8.00
2019-02-11T08:00:48.085Z,5.83
2019-02-11T08:08:47.292Z,8.77
2019-02-11T08:11:25.537Z,5.67
2019-02-11T08:14:00.405Z,12.17
2019-02-11T08:16:32.606Z,6.43
2019-02-11T08:19:12.645Z,7.90
2019-02-11T08:22:06.621Z,10.30
2019-02-11T08:24:37.961Z,12.40
2019-02-11T08:27:09.535Z,8.57
2019-02-11T08:29:46.243Z,11.17
2019-02-11T08:32:20.741Z,8.63
2019-02-11T08:34:59.735Z,11.40
2019-02-11T08:37:33.248Z,18.47
2019-02-11T08:40:06.495Z,11.57
2019-02-11T08:42:37.060Z,12.10
2019-02-11T08:45:21.439Z,8.77
2019-02-11T08:47:52.884Z,13.77
2019-02-11T08:50:29.392Z,7.83
2019-02-11T08:53:41.777Z,14.90
2019-02-11T08:56:16.365Z,17.60
2019-02-11T08:58:50.657Z,6.30
2019-02-11T09:01:38.202Z,13.37
2019-02-11T09:04:19.007Z,4.40
2019-02-11T09:09:49.665Z,5.10
2019-02-11T09:12:18.709Z,8.17
2019-02-11T09:14:48.266Z,2.70
2019-02-11T09:17:18.285Z,5.30
2019-02-11T09:19:50.674Z,9.50
2019-02-11T09:22:21.050Z,7.47
2019-02-11T09:25:00.784Z,7.70
2019-02-11T09:27:41.678Z,12.93
2019-02-11T09:30:19.999Z,11.50
2019-02-11T09:32:56.790Z,4.70
2019-02-11T09:35:33.821Z,10.13
2019-02-11T09:38:04.257Z,14.37
2019-02-11T09:40:41.618Z,7.83
2019-02-11T09:43:14.869Z,8.80
2019-02-11T09:45:45.967Z,9.47
2019-02-11T09:48:16.664Z,5.40
2019-02-11T09:50:48.648Z,14.07
2019-02-11T09:53:18.281Z,6.57
2019-02-11T09:55:47.321Z,7.93
2019-02-11T09:58:16.610Z,5.50
2019-02-11T10:00:49.412Z,5.03
2019-02-11T10:03:22.661Z,8.63
2019-02-11T10:05:53.283Z,13.87
2019-02-11T10:11:32.697Z,7.73
2019-02-11T10:14:04.257Z,5.57
2019-02-11T10:16:36.965Z,7.07
2019-02-11T10:19:06.894Z,6.47
2019-02-11T10:21:37.214Z,10.50
2019-02-11T10:24:07.097Z,9.43
2019-02-11T10:26:37.913Z,9.47
2019-02-11T10:29:09.500Z,9.07
2019-02-11T10:31:41.508Z,10.67
2019-02-11T10:34:15.108Z,12.57
2019-02-11T10:36:46.803Z,2.60
2019-02-11T10:39:20.036Z,9.53
2019-02-11T10:41:50.448Z,12.03
2019-02-11T10:44:20.526Z,5.43
2019-02-11T10:50:12.548Z,3.20
2019-02-11T10:52:57.346Z,8.20
2019-02-11T10:55:26.876Z,6.07
2019-02-11T10:57:56.382Z,7.20
2019-02-11T11:00:26.362Z,4.60
2019-02-11T11:02:55.507Z,4.87
2019-02-11T11:05:29.071Z,8.93
2019-02-11T11:08:01.490Z,3.83
2019-02-11T11:10:33.637Z,9.50
2019-02-11T11:13:06.566Z,3.67
2019-02-11T11:15:42.959Z,10.87
2019-02-11T11:18:18.117Z,7.23
2019-02-11T11:20:52.470Z,3.97
2019-02-11T11:23:22.316Z,6.57
2019-02-11T11:25:58.814Z,4.00
2019-02-11T11:31:14.919Z,2.20
2019-02-11T11:33:45.457Z,1.83
2019-02-11T11:36:14.647Z,4.10
2019-02-11T11:38:45.433Z,3.13
2019-02-11T11:41:15.979Z,7.23
2019-02-11T11:43:45.387Z,7.87
2019-02-11T11:46:15.527Z,10.67
2019-02-11T11:48:46.158Z,5.27
2019-02-11T11:51:17.593Z,2.70
2019-02-11T11:53:49.777Z,2.87
2019-02-11T11:56:30.370Z,3.43
2019-02-11T11:58:59.695Z,3.07
2019-02-11T12:01:29.956Z,6.80
2019-02-11T12:04:06.392Z,5.97
2019-02-11T12:06:41.070Z,2.73
2019-02-11T12:09:12.108Z,5.07
2019-02-11T12:11:42.965Z,3.37
2019-02-11T12:14:13.062Z,9.53
2019-02-11T12:16:56.212Z,9.40
2019-02-11T12:19:12.173Z,14.70
2019-02-11T12:21:42.718Z,5.17
2019-02-11T12:24:16.205Z,5.07
2019-02-11T12:26:52.160Z,3.10
2019-02-11T12:29:26.898Z,6.60
2019-02-11T12:32:02.269Z,3.20
2019-02-11T12:34:33.056Z,8.50
2019-02-11T12:37:08.858Z,8.30
2019-02-11T12:39:40.449Z,7.63
2019-02-11T12:42:11.625Z,16.37
2019-02-11T12:44:43.669Z,10.17
2019-02-11T12:47:15.597Z,7.33
2019-02-11T12:49:44.877Z,7.33
2019-02-11T12:52:16.728Z,5.07
2019-02-11T12:54:50.018Z,3.27
2019-02-11T12:57:23.193Z,13.07
2019-02-11T12:59:53.143Z,5.17
2019-02-11T13:02:23.579Z,2.40
2019-02-11T13:04:55.556Z,13.83
2019-02-11T13:07:30.253Z,2.97
2019-02-11T13:09:59.622Z,7.00
2019-02-11T13:12:30.030Z,5.53
2019-02-11T13:15:01.875Z,7.47
2019-02-11T13:17:35.003Z,6.80
2019-02-11T13:20:08.882Z,2.57
2019-02-11T13:22:36.330Z,9.77
2019-02-11T13:25:08.941Z,8.20
2019-02-11T13:27:37.988Z,7.60
2019-02-11T13:30:11.998Z,5.60
2019-02-11T13:32:42.359Z,10.03
2019-02-11T13:35:15.538Z,7.93
2019-02-11T13:37:46.597Z,9.67
2019-02-11T13:40:17.831Z,8.87
2019-02-11T13:42:46.898Z,10.03
2019-02-11T13:45:20.814Z,24.40
2019-02-11T13:47:57.663Z,7.57
2019-02-11T13:50:24.797Z,6.37
2019-02-11T13:52:59.025Z,8.90
2019-02-11T13:55:31.825Z,6.43
2019-02-11T13:58:01.355Z,7.87
2019-02-11T14:00:38.021Z,5.80
2019-02-11T14:03:09.141Z,6.77
2019-02-11T14:05:40.506Z,7.40
2019-02-11T14:08:20.509Z,6.50
2019-02-11T14:10:50.239Z,8.47
2019-02-11T14:13:20.824Z,6.80
2019-02-11T14:15:56.099Z,6.57
2019-02-11T14:18:35.253Z,7.77
2019-02-11T14:21:08.385Z,7.53
2019-02-11T14:23:41.445Z,8.67
2019-02-11T14:26:11.531Z,10.87
2019-02-11T14:28:51.665Z,10.67
2019-02-11T14:31:33.028Z,4.80
2019-02-11T14:34:03.510Z,8.07
2019-02-11T14:36:33.702Z,6.70
2019-02-11T14:41:39.826Z,9.07
2019-02-11T14:44:15.427Z,8.47
2019-02-11T14:46:49.588Z,6.27
2019-02-11T14:49:20.710Z,8.10
2019-02-11T14:51:58.092Z,10.33
2019-02-11T14:54:28.648Z,6.90
2019-02-11T14:57:07.477Z,8.40
2019-02-11T14:59:42.736Z,10.93
2019-02-11T15:02:17.845Z,11.10
2019-02-11T15:04:50.394Z,9.70
2019-02-11T15:07:30.916Z,11.03
2019-02-11T15:10:03.950Z,12.10
2019-02-11T15:12:36.278Z,10.00
2019-02-11T15:15:09.770Z,45.63
2019-02-11T15:17:42.886Z,10.60
2019-02-11T15:20:15.174Z,5.30
2019-02-11T15:22:44.669Z,6.60
2019-02-11T15:25:21.254Z,5.73
2019-02-11T15:27:51.972Z,7.60
2019-02-11T15:30:22.458Z,6.83
2019-02-11T15:32:57.587Z,9.17
2019-02-11T15:35:32.845Z,6.13
2019-02-11T15:38:07.531Z,7.17
2019-02-11T15:40:38.287Z,8.93
2019-02-11T15:43:11.480Z,10.73
2019-02-11T15:45:42.186Z,13.33
2019-02-11T15:48:16.895Z,11.80
2019-02-11T15:50:56.442Z,9.73
2019-02-11T15:53:26.767Z,15.97
2019-02-11T15:55:57.669Z,10.83
2019-02-11T15:58:28.006Z,9.73
2019-02-11T16:01:03.498Z,13.43
2019-02-11T16:03:39.873Z,9.60
2019-02-11T16:06:19.217Z,11.67
2019-02-11T16:08:52.324Z,8.77
2019-02-11T16:11:22.055Z,13.53
2019-02-11T16:13:56.756Z,8.30
2019-02-11T16:16:27.782Z,13.50
2019-02-11T16:18:57.294Z,9.97
2019-02-11T16:21:40.589Z,11.10
2019-02-11T16:24:11.754Z,9.93
2019-02-11T16:26:45.135Z,8.57
2019-02-11T16:29:15.348Z,11.67
2019-02-11T16:31:46.518Z,11.60
2019-02-11T16:34:20.821Z,14.90
2019-02-11T16:36:50.956Z,15.07
2019-02-11T16:39:20.867Z,14.90
2019-02-11T16:41:54.638Z,11.07
2019-02-11T16:44:28.239Z,11.80
2019-02-11T16:46:59.251Z,9.03
2019-02-11T16:49:33.055Z,6.00
2019-02-11T16:52:04.983Z,12.40
2019-02-11T16:54:40.057Z,9.53
2019-02-11T16:57:26.378Z,11.67
2019-02-11T17:03:11.840Z,9.33
2019-02-11T17:05:42.856Z,8.17
2019-02-11T17:08:15.384Z,21.10
2019-02-11T17:10:49.350Z,16.17
2019-02-11T17:13:20.422Z,13.67
2019-02-11T17:15:56.793Z,15.07
2019-02-11T17:18:26.564Z,13.27
2019-02-11T17:20:59.862Z,6.73
2019-02-11T17:23:31.709Z,17.70
2019-02-11T17:26:02.535Z,15.87
2019-02-11T17:28:33.615Z,11.23
2019-02-11T17:31:04.209Z,10.93
2019-02-11T17:33:33.428Z,11.07
2019-02-11T17:36:11.625Z,20.43
2019-02-11T17:38:46.032Z,12.13
2019-02-11T17:41:16.818Z,13.60
2019-02-11T17:43:51.239Z,19.30
2019-02-11T17:46:21.498Z,22.20
2019-02-11T17:48:53.505Z,12.47
2019-02-11T17:51:24.992Z,12.77
2019-02-11T17:54:03.554Z,12.10
2019-02-11T17:56:35.484Z,12.20
2019-02-11T17:59:12.021Z,12.77
2019-02-11T18:01:42.752Z,13.80
2019-02-11T18:04:14.190Z,14.80
2019-02-11T18:06:43.860Z,13.60
2019-02-11T18:09:15.585Z,14.67
2019-02-11T18:11:48.398Z,16.67
2019-02-11T18:14:19.814Z,9.57
2019-02-11T18:16:52.467Z,10.27
2019-02-11T18:19:26.298Z,12.17
2019-02-11T18:21:54.315Z,9.93
2019-02-11T18:24:24.486Z,7.87
2019-02-11T18:26:55.098Z,8.53
2019-02-11T18:29:26.878Z,8.13
2019-02-11T18:31:58.412Z,17.80
2019-02-11T18:34:28.949Z,17.57
2019-02-11T18:37:00.768Z,9.80
2019-02-11T18:39:30.737Z,11.70
2019-02-11T18:42:00.624Z,13.83
2019-02-11T18:44:33.664Z,13.57
2019-02-11T18:47:05.962Z,16.63
2019-02-11T18:49:35.208Z,14.07
2019-02-11T18:52:06.414Z,17.73
2019-02-11T18:54:36.766Z,11.70
2019-02-11T18:57:10.850Z,26.70
2019-02-11T18:59:41.395Z,33.13
2019-02-11T19:02:13.291Z,31.20
2019-02-11T19:04:42.826Z,14.83
2019-02-11T19:07:16.403Z,15.70
2019-02-11T19:09:47.057Z,26.80
2019-02-11T19:12:19.123Z,16.43
2019-02-11T19:14:49.654Z,18.57
2019-02-11T19:17:20.319Z,15.73
2019-02-11T19:19:50.993Z,15.27
2019-02-11T19:22:22.333Z,29.03
2019-02-11T19:24:50.762Z,34.90
2019-02-11T19:27:23.729Z,27.83
2019-02-11T19:29:54.786Z,14.83
2019-02-11T19:32:25.188Z,12.17
2019-02-11T19:34:56.437Z,13.27
2019-02-11T19:37:30.650Z,12.17
2019-02-11T19:40:05.757Z,10.27
2019-02-11T19:42:35.132Z,10.90
2019-02-11T19:45:06.133Z,11.07
2019-02-11T19:47:36.521Z,12.57
2019-02-11T19:50:11.906Z,17.00
2019-02-11T19:52:42.112Z,12.30
2019-02-11T19:55:12.334Z,16.20
2019-02-11T19:57:44.199Z,18.37
2019-02-11T20:00:18.872Z,14.20
2019-02-11T20:02:50.465Z,10.83
2019-02-11T20:05:19.710Z,15.43
2019-02-11T20:07:49.704Z,10.87
2019-02-11T20:10:21.913Z,13.47
2019-02-11T20:12:55.584Z,18.03
2019-02-11T20:15:25.431Z,28.57
2019-02-11T20:17:55.133Z,23.13
2019-02-11T20:20:26.308Z,17.60
2019-02-11T20:22:55.662Z,21.77
2019-02-11T20:25:25.660Z,28.30
2019-02-11T20:27:57.867Z,29.17
2019-02-11T20:30:27.734Z,32.87
2019-02-11T20:32:58.467Z,29.17
2019-02-11T20:35:30.839Z,31.80
2019-02-11T20:38:03.234Z,40.63
2019-02-11T20:40:36.941Z,42.20
2019-02-11T20:43:10.350Z,34.87
2019-02-11T20:45:46.366Z,33.77
2019-02-11T20:48:17.119Z,39.90
2019-02-11T20:50:47.332Z,36.27
2019-02-11T20:53:17.024Z,33.00
2019-02-11T20:55:50.007Z,31.90
2019-02-11T20:58:22.346Z,31.53
2019-02-11T21:00:52.973Z,28.47
2019-02-11T21:03:22.610Z,31.10
2019-02-11T21:05:53.279Z,28.30
2019-02-11T21:08:27.781Z,25.67
2019-02-11T21:10:58.999Z,21.70
2019-02-11T21:13:29.647Z,23.20
2019-02-11T21:16:00.378Z,23.27
2019-02-11T21:18:31.212Z,17.60
2019-02-11T21:21:04.169Z,18.93
2019-02-11T21:23:33.306Z,15.33
2019-02-11T21:26:03.798Z,12.00
2019-02-11T21:28:36.788Z,16.90
2019-02-11T21:31:05.906Z,12.17
2019-02-11T21:33:42.277Z,10.30
2019-02-11T21:36:11.844Z,12.93
2019-02-11T21:38:41.560Z,13.50
2019-02-11T21:41:10.994Z,9.33
2019-02-11T21:43:39.992Z,10.53
2019-02-11T21:46:11.711Z,14.70
2019-02-11T21:48:45.218Z,11.67
2019-02-11T21:51:19.051Z,8.47
2019-02-11T21:53:52.655Z,10.53
2019-02-11T21:56:24.282Z,12.13
2019-02-11T21:58:59.138Z,12.43
2019-02-11T22:01:28.373Z,11.87
2019-02-11T22:04:00.607Z,10.77
2019-02-11T22:06:30.616Z,12.10
2019-02-11T22:09:01.186Z,11.27
2019-02-11T22:11:31.852Z,11.50
2019-02-11T22:14:10.085Z,14.43
2019-02-11T22:16:40.628Z,14.80
2019-02-11T22:19:10.946Z,13.83
2019-02-11T22:21:41.568Z,12.37
2019-02-11T22:24:11.376Z,8.37
2019-02-11T22:26:41.622Z,10.07
2019-02-11T22:29:12.593Z,12.90
2019-02-11T22:31:42.566Z,12.17
2019-02-11T22:34:13.645Z,9.77
2019-02-11T22:36:44.849Z,11.77
2019-02-11T22:39:16.564Z,11.03
2019-02-11T22:41:46.874Z,12.40
2019-02-11T22:44:17.728Z,11.93
2019-02-11T22:46:47.319Z,10.10
2019-02-11T22:49:16.645Z,12.77
2019-02-11T22:51:47.082Z,11.87
2019-02-11T22:54:16.055Z,10.67
2019-02-11T22:56:49.111Z,10.57
2019-02-11T22:59:20.271Z,17.50
2019-02-11T23:01:50.735Z,13.37
2019-02-11T23:04:22.004Z,11.03
2019-02-11T23:06:51.601Z,10.27
2019-02-11T23:09:20.585Z,10.73
2019-02-11T23:11:51.963Z,8.87
2019-02-11T23:14:25.117Z,9.50
2019-02-11T23:16:57.386Z,9.87
2019-02-11T23:19:27.454Z,7.93
2019-02-11T23:21:59.465Z,10.83
2019-02-11T23:24:30.561Z,7.37
2019-02-11T23:27:00.596Z,8.80
2019-02-11T23:29:35.539Z,9.87
2019-02-11T23:32:06.328Z,11.63
2019-02-11T23:34:35.792Z,6.63
2019-02-11T23:37:05.636Z,9.20
2019-02-11T23:39:34.861Z,8.83
2019-02-11T23:42:05.087Z,7.10
2019-02-11T23:44:44.899Z,7.33
2019-02-11T23:47:20.896Z,8.73
2019-02-11T23:49:55.750Z,6.13
2019-02-11T23:52:26.142Z,8.73
2019-02-11T23:54:57.851Z,6.17
2019-02-11T23:57:35.695Z,13.83
